• Join FlightAware (Why Join?)
  • Login
  • US Flag 
05:51PM EDT


 

Airport Tracker/Info


-or-


 

Live Flight TrackerFlight Track Log ✈ SWA538 ✈ 17-Jun-2013 ✈ KSNA - KSFO

Flight Track Log - Related Links

Times and Time Zones

All times are in EDT time to prevent confusion due to time zone crossing. See the SWA538 flight status page for this flight to view local times or setup timezone preferences in your user account.

Time Position Orientation Groundspeed Altitude Reporting Facility
EDT Latitude Longitude Course Direction KTS MPH feet Rate Location/Type
12:38AM 33.6500 -117.8833 195° South 142 163 1,500  Level Southern California TRACON
12:40AM 33.6056 -117.8978 195° South 142 163 3,100 1,440 Climbing Los Angeles Center
12:41AM 33.5461 -117.9181 196° South 213 245 5,100 3,180 Climbing Los Angeles Center
12:42AM 33.4794 -117.9661 211° Southwest 268 308 9,600 3,660 Climbing Los Angeles Center
12:43AM 33.4078 -118.0178 211° Southwest 284 327 12,700 3,120 Climbing Los Angeles Center
12:44AM 33.3369 -118.0969 223° Southwest 331 381 16,100 3,480 Climbing Los Angeles Center
12:45AM 33.3453 -118.2108 275° West 345 397 19,800 3,600 Climbing Los Angeles Center
12:46AM 33.3656 -118.3544 280° West 360 414 23,500 2,580 Climbing Los Angeles Center
12:47AM 33.4183 -118.4717 298° West 408 470 25,200 2,040 Climbing Los Angeles Center
12:48AM 33.5056 -118.5750 315° West 435 501 27,700 2,760 Climbing Los Angeles Center
12:49AM 33.5911 -118.6758 316° Northwest 430 495 30,900 2,760 Climbing Los Angeles Center
12:50AM 33.6744 -118.7744 315° West 419 482 33,400 2,340 Climbing Los Angeles Center
12:51AM 33.7572 -118.8711 316° Northwest 413 475 35,700 2,040 Climbing Los Angeles Center
12:52AM 33.8381 -118.9672 315° West 410 472 37,700 1,800 Climbing Los Angeles Center
12:53AM 33.9178 -119.0619 315° West 404 465 39,400 1,080 Climbing Los Angeles Center
12:54AM 33.9967 -119.1578 315° West 402 463 40,000 240 Climbing Los Angeles Center
12:55AM 34.0797 -119.2569 315° West 415 478 40,000  Level Los Angeles Center
12:56AM 34.1617 -119.3558 315° West 416 479 40,000  Level Los Angeles Center
12:57AM 34.2283 -119.4342 316° Northwest 418 481 40,000  Level Los Angeles Center
12:58AM 34.3417 -119.5722 315° West 414 476 40,000  Level Los Angeles Center
12:59AM 34.4242 -119.6703 316° Northwest 414 476 40,000  Level Los Angeles Center
01:00AM 34.5047 -119.7692 315° West 414 476 40,000  Level Los Angeles Center
01:01AM 34.5903 -119.8625 318° Northwest 414 476 40,000  Level Los Angeles Center
01:02AM 34.6811 -119.9583 319° Northwest 416 479 40,000  Level Los Angeles Center
01:03AM 34.7678 -120.0533 318° Northwest 419 482 40,000  Level Los Angeles Center
01:04AM 34.8514 -120.1433 319° Northwest 419 482 40,000  Level Los Angeles Center
01:05AM 34.9367 -120.2386 318° Northwest 420 483 40,000  Level Los Angeles Center
01:06AM 35.0397 -120.3511 318° Northwest 420 483 40,000  Level Los Angeles Center
01:07AM 35.1078 -120.4261 318° Northwest 418 481 40,000  Level Los Angeles Center
01:08AM 35.2103 -120.5414 317° Northwest 422 486 40,000  Level Los Angeles Center
01:09AM 35.2942 -120.6369 317° Northwest 421 484 40,000  Level Los Angeles Center
01:10AM 35.3675 -120.7094 321° Northwest 425 489 40,000  Level Los Angeles Center
01:11AM 35.4822 -120.8114 324° Northwest 427 491 40,000  Level Los Angeles Center
01:12AM 35.5783 -120.8961 324° Northwest 426 490 40,000  Level Los Angeles Center
01:13AM 35.6886 -120.9956 324° Northwest 425 489 40,000  Level Los Angeles Center
01:14AM 35.7844 -121.0822 324° Northwest 426 490 40,000  Level Los Angeles Center
01:15AM 35.8794 -121.1672 324° Northwest 422 486 40,000  Level Los Angeles Center
01:17AM 35.9917 -121.2717 323° Northwest 421 484 40,000 -240 Level Oakland Center
01:18AM 36.0858 -121.3572 324° Northwest 416 479 39,600 -660 Descending Oakland Center
01:19AM 36.1797 -121.4436 323° Northwest 415 478 38,700 -1,620 Descending Oakland Center
01:20AM 36.2742 -121.5294 324° Northwest 420 483 36,400 -3,000 Descending Oakland Center
01:21AM 36.3678 -121.6189 322° Northwest 423 487 32,700 -4,140 Descending Oakland Center
01:22AM 36.4661 -121.7086 324° Northwest 435 501 28,100 -3,000 Descending Oakland Center
01:23AM 36.5597 -121.7953 323° Northwest 408 470 26,600 -1,500 Descending Oakland Center
01:24AM 36.6578 -121.8861 323° Northwest 367 422 25,100 -1,140 Descending Oakland Center
01:25AM 36.7314 -121.9550 323° Northwest 332 382 24,400 -1,020 Descending Oakland Center
01:26AM 36.7722 -122.0328 303° West 286 329 23,100 -1,380 Descending Oakland Center
01:27AM 36.7144 -122.0864 217° Southwest 288 331 21,600 -1,500 Descending Oakland Center
01:28AM 36.6350 -122.0625 166° South 293 337 20,100 -840 Descending Oakland Center
01:29AM 36.6144 -121.9697 105° East 319 367 20,000 -60 Descending Oakland Center
01:30AM 36.6897 -121.9536 10° North 286 329 20,000  Level Oakland Center
01:31AM 36.7683 -121.9783 346° North 286 329 20,000  Level Oakland Center
01:32AM 36.7714 -122.0642 273° West 273 314 20,000  Level Oakland Center
01:33AM 36.7003 -122.0806 190° South 278 320 20,000  Level Oakland Center
01:34AM 36.6236 -122.0553 165° South 286 329 20,000  Level Oakland Center
01:35AM 36.6253 -121.9572 89° East 321 369 20,000  Level Oakland Center
01:36AM 36.7047 -121.9550 North 287 330 20,000  Level Oakland Center
01:37AM 36.7778 -122.0142 327° Northwest 290 334 20,000  Level Oakland Center
01:38AM 36.7328 -122.0744 227° Southwest 282 325 20,000  Level Oakland Center
01:39AM 36.6547 -122.0547 169° South 287 330 20,000  Level Oakland Center
01:40AM 36.6272 -121.9717 112° Southeast 304 350 20,000  Level Oakland Center
01:41AM 36.7044 -121.9567 North 290 334 20,000  Level Oakland Center
01:42AM 36.7733 -121.9953 336° Northwest 280 322 20,000  Level Oakland Center
01:43AM 36.7411 -122.0683 241° Southwest 282 325 20,000  Level Oakland Center
01:44AM 36.6644 -122.0508 170° South 283 326 20,000  Level Oakland Center
01:45AM 36.5861 -122.0303 168° South 287 330 20,000  Level Oakland Center
01:46AM 36.5306 -121.9675 138° Southeast 306 352 20,000 -60 Level Oakland Center
01:47AM 36.5931 -121.9250 29° Northeast 296 341 19,900  Descending Oakland Center
01:48AM 36.6706 -121.9503 345° North 284 327 20,000  Climbing Oakland Center
01:49AM 36.7506 -121.9675 350° North 288 331 20,000  Level Oakland Center
01:50AM 36.7597 -122.0583 277° West 273 314 20,000  Level Oakland Center
01:51AM 36.6828 -122.0575 180° South 288 331 20,000  Level Oakland Center
01:52AM 36.6050 -122.0347 167° South 288 331 20,000  Level Oakland Center
01:53AM 36.5331 -121.9975 157° South 290 334 20,000  Level Oakland Center
01:54AM 36.5719 -121.9139 60° Northeast 318 366 20,000  Level Oakland Center
01:55AM 36.6333 -121.9333 346° North 331 381 20,000  Level Northern Cal TRACON
01:56AM 36.7333 -121.9667 345° North 345 397 20,000 -1,080 Level Northern Cal TRACON
01:57AM 36.8167 -121.9833 351° North 332 382 17,900 -1,920 Descending Northern Cal TRACON
01:58AM 36.9000 -122.0000 351° North 329 379 16,200 -1,740 Descending Northern Cal TRACON
01:59AM 36.9833 -122.0333 342° North 326 375 14,500 -1,860 Descending Northern Cal TRACON
02:00AM 37.0833 -122.0500 352° North 314 361 12,500 -2,100 Descending Northern Cal TRACON
02:00AM 37.1092 -122.0600 343° North 314 361 11,400 -1,440 Descending Oakland Center
02:01AM 37.1667 -122.1181 321° Northwest 295 339 10,400 -900 Descending Oakland Center
02:02AM 37.2000 -122.1894 300° West 251 289 9,600 -1,080 Descending Oakland Center
02:03AM 37.2322 -122.2619 299° West 239 275 8,300 -900 Descending Oakland Center
02:04AM 37.2642 -122.3342 299° West 237 273 7,900 -240 Descending Oakland Center
02:05AM 37.2950 -122.4058 298° West 235 270 7,900  Level Oakland Center
02:06AM 37.3311 -122.4914 298° West 232 267 7,900  Level Oakland Center
02:07AM 37.2800 -122.5075 194° South 243 280 7,900 -300 Level Oakland Center
02:08AM 37.2356 -122.4486 133° Southeast 247 284 7,400 -540 Descending Oakland Center
02:09AM 37.2433 -122.3592 84° East 254 292 6,900 -300 Descending Oakland Center
02:10AM 37.2775 -122.2950 56° Northeast 246 283 6,900  Level Oakland Center
02:11AM 37.3411 -122.3244 340° North 242 278 6,900  Level Oakland Center
02:12AM 37.4036 -122.3536 340° North 239 275 6,900  Level Oakland Center
02:13AM 37.4622 -122.3492 North 241 277 6,900  Level Oakland Center
02:14AM 37.4289 -122.2892 125° Southeast 249 287 6,900  Level Oakland Center
02:15AM 37.3714 -122.2483 151° Southeast 241 277 6,900 -180 Level Oakland Center
02:16AM 37.3103 -122.2442 177° South 240 276 6,600 -540 Descending Oakland Center
02:17AM 37.2975 -122.1764 103° East 251 289 5,900 -360 Descending Oakland Center
02:18AM 37.3489 -122.1233 39° Northeast 242 278 5,900 -120 Level Oakland Center
02:19AM 37.4075 -122.0839 28° Northeast 239 275 5,700 -480 Descending Oakland Center
02:20AM 37.4531 -122.0497 31° Northeast 200 230 5,000 -420 Descending Oakland Center
02:21AM 37.5108 -122.0569 354° North 181 208 4,900 -540 Descending Oakland Center
02:22AM 37.5100 -122.1092 269° West 160 184 4,000 -960 Descending Oakland Center
02:23AM 37.5244 -122.1547 292° West 147 169 3,000 -1,020 Descending Oakland Center
02:24AM 37.5431 -122.1953 300° West 141 162 2,000 -660 Descending Oakland Center
02:25AM 37.5583 -122.2306 299° West 129 148 1,700 -240 Descending Oakland Center
02:26AM 37.5725 -122.2642 298° West 117 135 1,600 -420 Descending Oakland Center
02:27AM 37.5869 -122.2978 298° West 112 129 900 -660 Descending Oakland Center
02:29AM 37.6008 -122.3319 297° West 110 127 300 9,360 Descending Oakland Center
02:30AM 37.6175 -122.3689 300° West 111 128 20,000 19,320 Climbing Oakland Center